Time,TemperatureF,DewpointF,PressureIn,WindDirection,WindDirectionDegrees,WindSpeedMPH,WindSpeedGustMPH,Humidity,HourlyPrecipIn,Conditions,Clouds,dailyrainin,SoftwareType,DateUTC
2013-03-18 02:53:00,60.1,49.8,29.70,SW,225,2.0,-999.0,69,-99.99,,,0.00,meteohub,2013-03-18 07:53:00,
2013-03-18 02:54:00,60.1,49.8,29.70,SW,225,2.0,-999.0,69,-99.99,,,0.00,meteohub,2013-03-18 07:54:00,
2013-03-18 02:59:00,60.3,50.0,29.71,South,180,2.0,-999.0,69,0.00,,,0.00,meteohub,2013-03-18 07:59:00,
2013-03-18 03:04:00,60.3,50.0,29.71,South,180,2.0,3.0,69,0.00,,,0.00,meteohub,2013-03-18 08:04:00,
2013-03-18 03:09:00,60.1,50.2,29.71,South,180,3.0,3.0,70,0.00,,,0.00,meteohub,2013-03-18 08:09:00,
2013-03-18 03:14:00,59.9,50.2,29.71,SSW,203,2.0,4.0,70,0.00,,,0.00,meteohub,2013-03-18 08:14:00,
2013-03-18 03:19:00,59.9,50.2,29.71,South,180,2.0,4.0,70,0.00,,,0.00,meteohub,2013-03-18 08:19:00,
2013-03-18 03:24:00,59.7,50.0,29.71,SW,225,1.0,4.0,70,0.00,,,0.00,meteohub,2013-03-18 08:24:00,
2013-03-18 03:29:00,59.7,50.0,29.71,SW,225,1.0,2.0,70,0.00,,,0.00,meteohub,2013-03-18 08:29:00,
2013-03-18 03:34:00,59.5,50.2,29.71,SW,225,3.0,3.0,71,0.00,,,0.00,meteohub,2013-03-18 08:34:00,
2013-03-18 03:39:00,59.5,50.2,29.71,SW,225,3.0,3.0,71,0.00,,,0.00,meteohub,2013-03-18 08:39:00,
2013-03-18 03:44:00,59.5,50.2,29.71,SW,225,3.0,3.0,71,0.00,,,0.00,meteohub,2013-03-18 08:44:00,
2013-03-18 04:00:00,58.8,50.5,29.71,SW,225,4.0,-999.0,74,0.00,,,0.00,meteohub,2013-03-18 09:00:00,
2013-03-18 04:06:00,58.8,50.5,29.70,South,180,2.0,4.0,74,0.00,,,0.00,meteohub,2013-03-18 09:06:00,
2013-03-18 04:11:00,58.8,50.5,29.70,South,180,2.0,4.0,74,0.00,,,0.00,meteohub,2013-03-18 09:11:00,
2013-03-18 04:16:00,58.8,50.5,29.70,South,180,2.0,4.0,74,0.00,,,0.00,meteohub,2013-03-18 09:16:00,
2013-03-18 04:21:00,59.2,50.9,29.70,SW,225,3.0,4.0,74,0.00,,,0.00,meteohub,2013-03-18 09:21:00,
2013-03-18 04:26:00,59.2,50.9,29.69,SE,135,2.0,4.0,74,0.00,,,0.00,meteohub,2013-03-18 09:26:00,
2013-03-18 04:31:00,59.2,50.9,29.70,SSW,203,4.0,4.0,74,0.00,,,0.00,meteohub,2013-03-18 09:31:00,
2013-03-18 04:37:00,59.2,50.9,29.69,South,180,3.0,5.0,74,0.00,,,0.00,meteohub,2013-03-18 09:37:00,
2013-03-18 04:42:00,59.2,50.9,29.69,South,180,2.0,5.0,74,0.00,,,0.00,meteohub,2013-03-18 09:42:00,
2013-03-18 04:47:00,59.2,50.9,29.68,South,180,2.0,5.0,74,0.00,,,0.00,meteohub,2013-03-18 09:47:00,
2013-03-18 04:52:00,59.2,50.9,29.68,South,180,2.0,4.0,74,0.00,,,0.00,meteohub,2013-03-18 09:52:00,
2013-03-18 04:57:00,59.2,50.9,29.68,South,180,2.0,3.0,74,0.00,,,0.00,meteohub,2013-03-18 09:57:00,
2013-03-18 05:16:00,60.1,52.9,29.68,South,180,5.0,-999.0,77,0.00,,,0.00,meteohub,2013-03-18 10:16:00,
2013-03-18 05:21:00,60.1,52.9,29.68,South,180,5.0,5.0,77,0.00,,,0.00,meteohub,2013-03-18 10:21:00,
2013-03-18 05:27:00,60.1,52.9,29.68,South,180,5.0,5.0,77,0.00,,,0.00,meteohub,2013-03-18 10:27:00,
2013-03-18 05:32:00,60.1,52.9,29.68,South,180,5.0,5.0,77,0.00,,,0.00,meteohub,2013-03-18 10:32:00,
2013-03-18 05:42:00,60.4,54.9,29.68,SW,225,2.0,5.0,82,0.00,,,0.00,meteohub,2013-03-18 10:42:00,
2013-03-18 05:47:00,60.4,55.2,29.68,West,270,3.0,-999.0,83,0.00,,,0.00,meteohub,2013-03-18 10:47:00,
2013-03-18 05:52:00,60.4,55.2,29.68,West,270,3.0,4.0,83,0.00,,,0.00,meteohub,2013-03-18 10:52:00,
2013-03-18 05:57:00,60.8,55.9,29.68,South,180,4.0,4.0,84,0.00,,,0.00,meteohub,2013-03-18 10:57:00,
2013-03-18 06:02:00,61.0,56.5,29.68,South,180,4.0,4.0,85,0.00,,,0.00,meteohub,2013-03-18 11:02:00,
2013-03-18 06:07:00,61.0,56.5,29.68,SW,225,4.0,4.0,85,0.00,,,0.00,meteohub,2013-03-18 11:07:00,
2013-03-18 06:12:00,61.0,56.8,29.68,South,180,5.0,5.0,86,0.00,,,0.00,meteohub,2013-03-18 11:12:00,
2013-03-18 06:17:00,61.2,57.2,29.68,SW,225,5.0,5.0,87,0.00,,,0.00,meteohub,2013-03-18 11:17:00,
2013-03-18 06:22:00,61.2,57.2,29.69,SW,225,5.0,5.0,87,0.00,,,0.00,meteohub,2013-03-18 11:22:00,
2013-03-18 06:27:00,61.2,57.2,29.69,SW,225,5.0,5.0,87,0.00,,,0.00,meteohub,2013-03-18 11:27:00,
2013-03-18 06:32:00,61.2,57.2,29.69,SW,225,5.0,5.0,87,0.00,,,0.00,meteohub,2013-03-18 11:32:00,
2013-03-18 06:37:00,61.9,59.0,29.69,SW,225,3.0,5.0,90,0.00,,,0.00,meteohub,2013-03-18 11:37:00,
2013-03-18 06:42:00,62.1,59.4,29.70,South,180,4.0,5.0,91,0.00,,,0.00,meteohub,2013-03-18 11:42:00,
2013-03-18 06:48:00,62.1,59.4,29.70,South,180,4.0,5.0,91,0.00,,,0.00,meteohub,2013-03-18 11:48:00,
2013-03-18 06:53:00,62.1,59.4,29.71,South,180,4.0,5.0,91,0.00,,,0.00,meteohub,2013-03-18 11:53:00,
2013-03-18 07:16:00,63.3,61.3,29.73,SW,225,6.0,-999.0,93,0.00,,,0.00,meteohub,2013-03-18 12:16:00,
2013-03-18 07:21:00,63.7,61.9,29.73,East,90,4.0,6.0,94,0.00,,,0.00,meteohub,2013-03-18 12:21:00,
2013-03-18 07:26:00,64.0,62.2,29.73,South,180,4.0,6.0,94,0.00,,,0.00,meteohub,2013-03-18 12:26:00,
2013-03-18 07:31:00,64.2,62.4,29.74,West,270,6.0,8.0,94,0.00,,,0.00,meteohub,2013-03-18 12:31:00,
2013-03-18 07:36:00,64.2,62.4,29.75,West,270,6.0,8.0,94,0.00,,,0.00,meteohub,2013-03-18 12:36:00,
2013-03-18 07:41:00,64.6,62.8,29.75,SW,225,9.0,9.0,94,0.00,,,0.00,meteohub,2013-03-18 12:41:00,
2013-03-18 07:46:00,64.6,62.8,29.75,SW,225,9.0,9.0,94,0.00,,,0.00,meteohub,2013-03-18 12:46:00,
2013-03-18 07:51:00,64.6,62.8,29.75,SW,225,9.0,9.0,94,0.00,,,0.00,meteohub,2013-03-18 12:51:00,
2013-03-18 07:56:00,65.1,63.0,29.81,North,0,7.0,9.0,93,0.00,,,0.00,meteohub,2013-03-18 12:56:00,
2013-03-18 08:02:00,64.8,62.6,29.80,North,0,2.0,9.0,93,0.00,,,0.00,meteohub,2013-03-18 13:02:00,
2013-03-18 08:07:00,64.4,62.1,29.81,NW,315,4.0,9.0,92,0.00,,,0.00,meteohub,2013-03-18 13:07:00,
2013-03-18 08:12:00,63.9,60.6,29.82,North,0,4.0,9.0,89,0.00,,,0.00,meteohub,2013-03-18 13:12:00,
2013-03-18 08:17:00,63.5,59.9,29.82,NW,315,6.0,9.0,88,0.00,,,0.00,meteohub,2013-03-18 13:17:00,
2013-03-18 08:22:00,63.3,59.7,29.81,NW,315,6.0,8.0,88,0.00,,,0.00,meteohub,2013-03-18 13:22:00,
2013-03-18 08:27:00,62.8,57.9,29.83,NW,315,5.0,8.0,84,0.00,,,0.00,meteohub,2013-03-18 13:27:00,
2013-03-18 08:32:00,62.6,57.0,29.83,North,0,4.0,8.0,82,0.00,,,0.00,meteohub,2013-03-18 13:32:00,
2013-03-18 08:37:00,62.6,56.3,29.83,North,0,6.0,6.0,80,0.00,,,0.00,meteohub,2013-03-18 13:37:00,
2013-03-18 08:42:00,62.4,55.4,29.83,North,0,4.0,6.0,78,0.00,,,0.00,meteohub,2013-03-18 13:42:00,
2013-03-18 08:47:00,62.4,55.4,29.84,North,0,4.0,6.0,78,0.00,,,0.00,meteohub,2013-03-18 13:47:00,
2013-03-18 08:52:00,62.4,55.4,29.84,North,0,4.0,6.0,78,0.00,,,0.00,meteohub,2013-03-18 13:52:00,
2013-03-18 09:13:00,62.1,52.5,29.86,North,0,6.0,-999.0,71,0.00,,,0.00,meteohub,2013-03-18 14:13:00,
2013-03-18 09:18:00,62.1,52.5,29.86,NE,45,7.0,-999.0,71,0.00,,,0.00,meteohub,2013-03-18 14:18:00,
2013-03-18 09:23:00,61.5,51.6,29.87,North,0,7.0,7.0,70,0.00,,,0.00,meteohub,2013-03-18 14:23:00,
2013-03-18 09:28:00,61.7,52.2,29.86,NW,315,7.0,7.0,71,0.00,,,0.00,meteohub,2013-03-18 14:28:00,
2013-03-18 09:33:00,61.3,51.4,29.87,NE,45,9.0,9.0,70,0.00,,,0.00,meteohub,2013-03-18 14:33:00,
2013-03-18 09:38:00,61.3,51.4,29.87,NE,45,9.0,10.0,70,0.00,,,0.00,meteohub,2013-03-18 14:38:00,
2013-03-18 09:43:00,60.4,49.8,29.88,NE,45,8.0,10.0,68,0.00,,,0.00,meteohub,2013-03-18 14:43:00,
2013-03-18 09:49:00,60.4,49.8,29.88,NE,45,8.0,10.0,68,0.00,,,0.00,meteohub,2013-03-18 14:49:00,
2013-03-18 09:54:00,60.4,49.8,29.88,NE,45,8.0,9.0,68,0.00,,,0.00,meteohub,2013-03-18 14:54:00,
2013-03-18 09:59:00,60.1,49.1,29.89,NE,45,13.0,13.0,67,0.00,,,0.00,meteohub,2013-03-18 14:59:00,
2013-03-18 10:04:00,60.1,49.1,29.89,NE,45,13.0,13.0,67,0.00,,,0.00,meteohub,2013-03-18 15:04:00,
2013-03-18 10:09:00,60.1,49.1,29.89,NE,45,13.0,13.0,67,0.00,,,0.00,meteohub,2013-03-18 15:09:00,
2013-03-18 10:20:00,59.5,48.6,29.90,North,0,4.0,13.0,67,0.00,,,0.00,meteohub,2013-03-18 15:20:00,
2013-03-18 10:25:00,60.3,49.3,29.90,North,0,12.0,13.0,67,0.00,,,0.00,meteohub,2013-03-18 15:25:00,
2013-03-18 10:30:00,60.6,48.4,29.91,WNW,293,12.0,-999.0,64,0.00,,,0.00,meteohub,2013-03-18 15:30:00,
2013-03-18 10:35:00,60.4,48.2,29.91,ENE,68,11.0,12.0,64,0.00,,,0.00,meteohub,2013-03-18 15:35:00,
2013-03-18 10:40:00,60.3,47.7,29.91,NW,315,11.0,12.0,63,0.00,,,0.00,meteohub,2013-03-18 15:40:00,
2013-03-18 10:45:00,60.4,47.8,29.91,North,0,9.0,12.0,63,0.00,,,0.00,meteohub,2013-03-18 15:45:00,
2013-03-18 10:50:00,60.4,47.8,29.91,North,0,9.0,12.0,63,0.00,,,0.00,meteohub,2013-03-18 15:50:00,
2013-03-18 10:55:00,60.4,47.3,29.91,East,90,8.0,11.0,62,0.00,,,0.00,meteohub,2013-03-18 15:55:00,
2013-03-18 11:00:00,60.8,47.3,29.92,NW,315,9.0,11.0,61,0.00,,,0.00,meteohub,2013-03-18 16:00:00,
2013-03-18 11:05:00,60.8,47.3,29.92,NW,315,9.0,11.0,61,0.00,,,0.00,meteohub,2013-03-18 16:05:00,
2013-03-18 11:10:00,60.8,47.3,29.92,NW,315,9.0,11.0,61,0.00,,,0.00,meteohub,2013-03-18 16:10:00,
2013-03-18 11:29:00,63.9,47.8,29.92,NE,45,12.0,-999.0,56,0.00,,,0.00,meteohub,2013-03-18 16:29:00,
2013-03-18 11:34:00,63.9,47.8,29.93,NE,45,12.0,-999.0,56,0.00,,,0.00,meteohub,2013-03-18 16:34:00,
2013-03-18 11:40:00,63.9,47.8,29.93,NE,45,12.0,12.0,56,0.00,,,0.00,meteohub,2013-03-18 16:40:00,
2013-03-18 12:54:00,66.4,45.5,29.93,NW,315,8.0,-999.0,47,-99.99,,,0.00,meteohub,2013-03-18 17:54:00,
2013-03-18 12:59:00,66.7,45.3,29.93,North,0,10.0,-999.0,46,0.00,,,0.00,meteohub,2013-03-18 17:59:00,
2013-03-18 13:04:00,66.7,45.3,29.93,North,0,10.0,11.0,46,0.00,,,0.00,meteohub,2013-03-18 18:04:00,
2013-03-18 13:09:00,66.2,44.2,29.93,NE,45,15.0,15.0,45,0.00,,,0.00,meteohub,2013-03-18 18:09:00,
2013-03-18 13:14:00,66.4,45.0,29.93,NW,315,8.0,15.0,46,0.00,,,0.00,meteohub,2013-03-18 18:14:00,
2013-03-18 13:19:00,66.9,45.5,29.93,North,0,8.0,17.0,46,0.00,,,0.00,meteohub,2013-03-18 18:19:00,
2013-03-18 13:24:00,67.1,45.0,29.93,NW,315,11.0,17.0,45,0.00,,,0.00,meteohub,2013-03-18 18:24:00,
2013-03-18 13:29:00,67.1,44.4,29.93,NE,45,10.0,11.0,44,0.00,,,0.00,meteohub,2013-03-18 18:29:00,
2013-03-18 13:34:00,67.3,45.9,29.93,East,90,8.0,11.0,46,0.00,,,0.00,meteohub,2013-03-18 18:34:00,
2013-03-18 13:40:00,67.5,45.3,29.93,NE,45,10.0,11.0,45,0.00,,,0.00,meteohub,2013-03-18 18:40:00,
2013-03-18 13:45:00,67.5,44.8,29.93,North,0,4.0,14.0,44,0.00,,,0.00,meteohub,2013-03-18 18:45:00,
2013-03-18 13:50:00,67.5,44.8,29.94,North,0,9.0,14.0,44,0.00,,,0.00,meteohub,2013-03-18 18:50:00,
2013-03-18 13:55:00,67.5,44.8,29.93,North,0,8.0,14.0,44,0.00,,,0.00,meteohub,2013-03-18 18:55:00,
2013-03-18 14:00:00,67.8,45.7,29.93,NE,45,9.0,11.0,45,0.00,,,0.00,meteohub,2013-03-18 19:00:00,
2013-03-18 14:05:00,67.3,44.6,29.93,North,0,9.0,11.0,44,0.00,,,0.00,meteohub,2013-03-18 19:05:00,
2013-03-18 14:10:00,68.0,44.6,29.93,NE,45,12.0,12.0,43,0.00,,,0.00,meteohub,2013-03-18 19:10:00,
2013-03-18 14:15:00,68.4,45.0,29.93,NW,315,7.0,10.0,43,0.00,,,0.00,meteohub,2013-03-18 19:15:00,
2013-03-18 14:20:00,68.7,44.8,29.92,NW,315,6.0,12.0,42,0.00,,,0.00,meteohub,2013-03-18 19:20:00,
2013-03-18 14:25:00,68.7,45.3,29.92,North,0,7.0,12.0,43,0.00,,,0.00,meteohub,2013-03-18 19:25:00,
2013-03-18 14:30:00,69.3,45.1,29.91,North,0,7.0,12.0,42,0.00,,,0.00,meteohub,2013-03-18 19:30:00,
2013-03-18 14:35:00,69.1,44.4,29.92,North,0,4.0,10.0,41,0.00,,,0.00,meteohub,2013-03-18 19:35:00,
2013-03-18 14:40:00,68.9,44.2,29.92,North,0,6.0,10.0,41,0.00,,,0.00,meteohub,2013-03-18 19:40:00,
2013-03-18 14:45:00,69.1,44.4,29.91,NW,315,6.0,12.0,41,0.00,,,0.00,meteohub,2013-03-18 19:45:00,
2013-03-18 14:50:00,69.3,44.6,29.91,NW,315,6.0,12.0,41,0.00,,,0.00,meteohub,2013-03-18 19:50:00,
2013-03-18 14:55:00,69.3,44.6,29.92,North,0,6.0,11.0,41,0.00,,,0.00,meteohub,2013-03-18 19:55:00,
2013-03-18 15:00:00,69.4,44.8,29.92,North,0,8.0,11.0,41,0.00,,,0.00,meteohub,2013-03-18 20:00:00,
2013-03-18 15:05:00,69.4,44.8,29.92,North,0,8.0,9.0,41,0.00,,,0.00,meteohub,2013-03-18 20:05:00,
2013-03-18 15:10:00,68.9,44.2,29.91,NE,45,9.0,9.0,41,0.00,,,0.00,meteohub,2013-03-18 20:10:00,
2013-03-18 15:15:00,68.7,44.8,29.91,NE,45,9.0,9.0,42,0.00,,,0.00,meteohub,2013-03-18 20:15:00,
2013-03-18 15:20:00,68.9,44.2,29.92,North,0,6.0,9.0,41,0.00,,,0.00,meteohub,2013-03-18 20:20:00,
2013-03-18 15:25:00,69.1,45.0,29.91,NE,45,4.0,9.0,42,0.00,,,0.00,meteohub,2013-03-18 20:25:00,
2013-03-18 15:30:00,68.9,44.2,29.91,North,0,4.0,9.0,41,0.00,,,0.00,meteohub,2013-03-18 20:30:00,
2013-03-18 15:35:00,69.1,45.0,29.91,East,90,4.0,11.0,42,0.00,,,0.00,meteohub,2013-03-18 20:35:00,
2013-03-18 15:40:00,68.7,44.8,29.92,East,90,6.0,11.0,42,0.00,,,0.00,meteohub,2013-03-18 20:40:00,
2013-03-18 15:45:00,68.5,44.6,29.92,ENE,68,8.0,11.0,42,0.00,,,0.00,meteohub,2013-03-18 20:45:00,
2013-03-18 15:50:00,68.7,44.8,29.91,NNW,338,4.0,8.0,42,0.00,,,0.00,meteohub,2013-03-18 20:50:00,
2013-03-18 15:55:00,68.7,44.8,29.91,West,270,8.0,8.0,42,0.00,,,0.00,meteohub,2013-03-18 20:55:00,
2013-03-18 16:00:00,68.7,44.8,29.91,NW,315,4.0,8.0,42,0.00,,,0.00,meteohub,2013-03-18 21:00:00,
2013-03-18 16:05:00,68.7,44.8,29.92,East,90,4.0,8.0,42,0.00,,,0.00,meteohub,2013-03-18 21:05:00,
2013-03-18 16:10:00,68.7,44.8,29.92,East,90,4.0,8.0,42,0.00,,,0.00,meteohub,2013-03-18 21:10:00,
2013-03-18 16:15:00,69.3,44.6,29.92,North,0,4.0,8.0,41,0.00,,,0.00,meteohub,2013-03-18 21:15:00,
2013-03-18 16:20:00,68.7,44.8,29.92,North,0,8.0,10.0,42,0.00,,,0.00,meteohub,2013-03-18 21:20:00,
2013-03-18 16:25:00,68.7,44.1,29.92,SE,135,5.0,11.0,41,0.00,,,0.00,meteohub,2013-03-18 21:25:00,
2013-03-18 16:30:00,69.4,44.8,29.93,North,0,8.0,11.0,41,0.00,,,0.00,meteohub,2013-03-18 21:30:00,
2013-03-18 16:35:00,69.8,43.7,29.93,North,0,8.0,10.0,39,0.00,,,0.00,meteohub,2013-03-18 21:35:00,
2013-03-18 16:40:00,69.8,43.7,29.92,SW,225,5.0,10.0,39,0.00,,,0.00,meteohub,2013-03-18 21:40:00,
2013-03-18 16:46:00,69.8,43.7,29.93,North,0,5.0,8.0,39,0.00,,,0.00,meteohub,2013-03-18 21:46:00,
2013-03-18 16:51:00,69.8,43.0,29.93,NNW,338,9.0,9.0,38,0.00,,,0.00,meteohub,2013-03-18 21:51:00,
2013-03-18 16:56:00,70.0,43.9,29.93,North,0,5.0,10.0,39,0.00,,,0.00,meteohub,2013-03-18 21:56:00,
2013-03-18 17:01:00,70.0,43.9,29.94,NE,45,5.0,10.0,39,0.00,,,0.00,meteohub,2013-03-18 22:01:00,
2013-03-18 17:06:00,69.8,43.7,29.93,North,0,5.0,10.0,39,0.00,,,0.00,meteohub,2013-03-18 22:06:00,
2013-03-18 17:12:00,69.4,43.3,29.93,ENE,68,8.0,8.0,39,0.00,,,0.00,meteohub,2013-03-18 22:12:00,
2013-03-18 17:17:00,68.7,43.3,29.94,NE,45,9.0,9.0,40,0.00,,,0.00,meteohub,2013-03-18 22:17:00,
2013-03-18 17:22:00,68.9,43.5,29.94,North,0,4.0,11.0,40,0.00,,,0.00,meteohub,2013-03-18 22:22:00,
2013-03-18 17:27:00,69.3,43.9,29.94,East,90,6.0,11.0,40,0.00,,,0.00,meteohub,2013-03-18 22:27:00,
2013-03-18 17:32:00,69.3,43.9,29.94,NE,45,4.0,14.0,40,0.00,,,0.00,meteohub,2013-03-18 22:32:00,
2013-03-18 17:37:00,69.1,43.7,29.94,North,0,6.0,14.0,40,0.00,,,0.00,meteohub,2013-03-18 22:37:00,
2013-03-18 17:42:00,68.9,43.5,29.93,East,90,8.0,14.0,40,0.00,,,0.00,meteohub,2013-03-18 22:42:00,
2013-03-18 17:47:00,68.7,43.3,29.94,East,90,8.0,8.0,40,0.00,,,0.00,meteohub,2013-03-18 22:47:00,
2013-03-18 17:52:00,68.7,43.3,29.93,East,90,8.0,8.0,40,0.00,,,0.00,meteohub,2013-03-18 22:52:00,
2013-03-18 17:57:00,69.1,44.4,29.93,North,0,6.0,8.0,41,0.00,,,0.00,meteohub,2013-03-18 22:57:00,
2013-03-18 18:02:00,69.3,43.9,29.94,North,0,10.0,10.0,40,0.00,,,0.00,meteohub,2013-03-18 23:02:00,
2013-03-18 18:07:00,69.4,44.1,29.94,NE,45,4.0,10.0,40,0.00,,,0.00,meteohub,2013-03-18 23:07:00,
2013-03-18 18:12:00,69.3,43.9,29.94,NE,45,4.0,10.0,40,0.00,,,0.00,meteohub,2013-03-18 23:12:00,
2013-03-18 18:17:00,69.3,43.9,29.94,East,90,6.0,10.0,40,0.00,,,0.00,meteohub,2013-03-18 23:17:00,
2013-03-18 18:22:00,68.9,43.5,29.94,ENE,68,7.0,11.0,40,0.00,,,0.00,meteohub,2013-03-18 23:22:00,
2013-03-18 18:27:00,68.7,43.3,29.94,North,0,6.0,11.0,40,0.00,,,0.00,meteohub,2013-03-18 23:27:00,
2013-03-18 18:32:00,68.7,43.3,29.94,NE,45,9.0,11.0,40,0.00,,,0.00,meteohub,2013-03-18 23:32:00,
2013-03-18 18:37:00,68.5,43.3,29.94,East,90,3.0,9.0,40,0.00,,,0.00,meteohub,2013-03-18 23:37:00,
2013-03-18 18:42:00,68.4,43.7,29.94,SE,135,4.0,9.0,41,0.00,,,0.00,meteohub,2013-03-18 23:42:00,
2013-03-18 18:47:00,68.4,43.7,29.95,NE,45,9.0,9.0,41,0.00,,,0.00,meteohub,2013-03-18 23:47:00,
2013-03-18 18:52:00,68.2,43.0,29.95,North,0,3.0,9.0,40,0.00,,,0.00,meteohub,2013-03-18 23:52:00,
2013-03-18 18:57:00,68.2,43.5,29.95,North,0,2.0,9.0,41,0.00,,,0.00,meteohub,2013-03-18 23:57:00,
2013-03-18 19:02:00,68.2,43.5,29.96,East,90,5.0,9.0,41,0.00,,,0.00,meteohub,2013-03-19 00:02:00,
2013-03-18 19:07:00,68.0,43.3,29.96,NE,45,5.0,6.0,41,0.00,,,0.00,meteohub,2013-03-19 00:07:00,
2013-03-18 19:12:00,67.8,43.9,29.96,ENE,68,5.0,6.0,42,0.00,,,0.00,meteohub,2013-03-19 00:12:00,
2013-03-18 19:17:00,67.5,43.5,29.96,NE,45,6.0,6.0,42,0.00,,,0.00,meteohub,2013-03-19 00:17:00,
2013-03-18 19:22:00,67.1,43.2,29.97,North,0,4.0,9.0,42,0.00,,,0.00,meteohub,2013-03-19 00:22:00,
2013-03-18 19:27:00,66.9,43.7,29.97,East,90,5.0,9.0,43,0.00,,,0.00,meteohub,2013-03-19 00:27:00,
2013-03-18 19:32:00,66.7,43.5,29.97,NE,45,3.0,9.0,43,0.00,,,0.00,meteohub,2013-03-19 00:32:00,
2013-03-18 19:37:00,66.4,43.2,29.98,North,0,6.0,6.0,43,0.00,,,0.00,meteohub,2013-03-19 00:37:00,
2013-03-18 19:43:00,66.2,43.0,29.98,North,0,7.0,7.0,43,0.00,,,0.00,meteohub,2013-03-19 00:43:00,
2013-03-18 19:48:00,65.8,43.3,29.98,SW,225,7.0,7.0,44,0.00,,,0.00,meteohub,2013-03-19 00:48:00,
2013-03-18 19:53:00,65.5,43.0,29.99,NE,45,5.0,10.0,44,0.00,,,0.00,meteohub,2013-03-19 00:53:00,
2013-03-18 19:58:00,65.3,43.3,29.99,NE,45,3.0,10.0,45,0.00,,,0.00,meteohub,2013-03-19 00:58:00,
2013-03-18 20:03:00,65.3,43.3,29.99,NE,45,5.0,10.0,45,0.00,,,0.00,meteohub,2013-03-19 01:03:00,
2013-03-18 20:08:00,64.9,43.2,29.99,North,0,4.0,7.0,45,0.00,,,0.00,meteohub,2013-03-19 01:08:00,
2013-03-18 20:13:00,64.8,43.0,30.00,NE,45,6.0,7.0,45,0.00,,,0.00,meteohub,2013-03-19 01:13:00,
2013-03-18 20:18:00,64.6,42.3,30.00,NE,45,4.0,6.0,44,0.00,,,0.00,meteohub,2013-03-19 01:18:00,
2013-03-18 20:23:00,64.2,42.4,30.00,NE,45,8.0,9.0,45,0.00,,,0.00,meteohub,2013-03-19 01:23:00,
2013-03-18 20:28:00,64.0,42.3,30.00,ENE,68,6.0,9.0,45,0.00,,,0.00,meteohub,2013-03-19 01:28:00,
2013-03-18 20:33:00,63.9,42.6,30.00,SSW,203,4.0,9.0,46,0.00,,,0.00,meteohub,2013-03-19 01:33:00,
2013-03-18 20:38:00,63.7,43.2,30.00,ENE,68,6.0,8.0,47,0.00,,,0.00,meteohub,2013-03-19 01:38:00,
2013-03-18 20:43:00,63.5,43.0,30.00,NE,45,6.0,8.0,47,0.00,,,0.00,meteohub,2013-03-19 01:43:00,
2013-03-18 20:48:00,63.5,43.0,30.00,NE,45,6.0,7.0,47,0.00,,,0.00,meteohub,2013-03-19 01:48:00,
2013-03-18 21:11:00,62.4,37.2,30.01,NE,45,7.0,-999.0,39,0.00,,,0.00,meteohub,2013-03-19 02:11:00,
2013-03-18 21:16:00,62.4,37.2,30.01,NE,45,7.0,7.0,39,0.00,,,0.00,meteohub,2013-03-19 02:16:00,
2013-03-18 21:21:00,62.2,36.3,30.01,NE,45,4.0,7.0,38,0.00,,,0.00,meteohub,2013-03-19 02:21:00,
2013-03-18 21:26:00,62.2,36.3,30.01,NE,45,4.0,7.0,38,0.00,,,0.00,meteohub,2013-03-19 02:26:00,
2013-03-18 21:32:00,62.2,36.3,30.01,NE,45,4.0,7.0,38,0.00,,,0.00,meteohub,2013-03-19 02:32:00,
2013-03-18 21:44:00,61.3,36.1,30.01,NE,45,4.0,4.0,39,0.00,,,0.00,meteohub,2013-03-19 02:44:00,
2013-03-18 21:50:00,61.2,36.0,30.01,NE,45,7.0,-999.0,39,0.00,,,0.00,meteohub,2013-03-19 02:50:00,
2013-03-18 21:55:00,61.2,36.0,30.01,East,90,8.0,8.0,39,0.00,,,0.00,meteohub,2013-03-19 02:55:00,
2013-03-18 22:00:00,61.2,36.0,30.02,East,90,8.0,8.0,39,0.00,,,0.00,meteohub,2013-03-19 03:00:00,
2013-03-18 22:05:00,60.8,35.6,30.02,NE,45,9.0,9.0,39,0.00,,,0.00,meteohub,2013-03-19 03:05:00,
2013-03-18 22:10:00,60.8,35.6,30.02,SE,135,8.0,9.0,39,0.00,,,0.00,meteohub,2013-03-19 03:10:00,
2013-03-18 22:15:00,60.8,35.6,30.02,SE,135,8.0,9.0,39,0.00,,,0.00,meteohub,2013-03-19 03:15:00,